sensor_id;sensor_type;location;lat;lon;timestamp;P1;durP1;ratioP1;P2;durP2;ratioP2
10719;SDS011;5411;58.386;15.560;2024-01-27T00:02:07;0.83;;;0.83;;
10719;SDS011;5411;58.386;15.560;2024-01-27T00:04:35;0.90;;;0.90;;
10719;SDS011;5411;58.386;15.560;2024-01-27T00:07:04;1.07;;;1.07;;
10719;SDS011;5411;58.386;15.560;2024-01-27T00:09:33;1.00;;;1.00;;
10719;SDS011;5411;58.386;15.560;2024-01-27T00:12:02;1.00;;;1.00;;
10719;SDS011;5411;58.386;15.560;2024-01-27T00:14:30;0.90;;;0.90;;
10719;SDS011;5411;58.386;15.560;2024-01-27T00:17:03;0.90;;;0.90;;
10719;SDS011;5411;58.386;15.560;2024-01-27T00:19:31;0.80;;;0.80;;
10719;SDS011;5411;58.386;15.560;2024-01-27T00:22:06;0.93;;;0.93;;
10719;SDS011;5411;58.386;15.560;2024-01-27T00:24:39;0.90;;;0.90;;
10719;SDS011;5411;58.386;15.560;2024-01-27T00:27:07;0.70;;;0.70;;
10719;SDS011;5411;58.386;15.560;2024-01-27T00:29:40;1.00;;;0.93;;
10719;SDS011;5411;58.386;15.560;2024-01-27T00:32:10;0.90;;;0.90;;
10719;SDS011;5411;58.386;15.560;2024-01-27T00:34:38;0.90;;;0.90;;
10719;SDS011;5411;58.386;15.560;2024-01-27T00:37:06;0.80;;;0.80;;
10719;SDS011;5411;58.386;15.560;2024-01-27T00:39:35;0.97;;;0.97;;
10719;SDS011;5411;58.386;15.560;2024-01-27T00:42:03;0.90;;;0.90;;
10719;SDS011;5411;58.386;15.560;2024-01-27T00:44:32;0.70;;;0.70;;
10719;SDS011;5411;58.386;15.560;2024-01-27T00:47:00;0.70;;;0.70;;
10719;SDS011;5411;58.386;15.560;2024-01-27T00:49:30;0.80;;;0.80;;
10719;SDS011;5411;58.386;15.560;2024-01-27T00:51:59;0.67;;;0.67;;
10719;SDS011;5411;58.386;15.560;2024-01-27T00:54:28;3.10;;;0.80;;
10719;SDS011;5411;58.386;15.560;2024-01-27T00:56:56;0.70;;;0.70;;
10719;SDS011;5411;58.386;15.560;2024-01-27T00:59:25;0.80;;;0.80;;
10719;SDS011;5411;58.386;15.560;2024-01-27T01:01:53;0.90;;;0.90;;
10719;SDS011;5411;58.386;15.560;2024-01-27T01:04:22;0.80;;;0.80;;
10719;SDS011;5411;58.386;15.560;2024-01-27T01:06:55;0.70;;;0.70;;
10719;SDS011;5411;58.386;15.560;2024-01-27T01:09:24;0.80;;;0.80;;
10719;SDS011;5411;58.386;15.560;2024-01-27T01:11:53;0.80;;;0.80;;
10719;SDS011;5411;58.386;15.560;2024-01-27T01:14:22;0.90;;;0.90;;
10719;SDS011;5411;58.386;15.560;2024-01-27T01:16:50;0.87;;;0.87;;
10719;SDS011;5411;58.386;15.560;2024-01-27T01:19:21;0.80;;;0.80;;
10719;SDS011;5411;58.386;15.560;2024-01-27T01:21:50;0.70;;;0.70;;
10719;SDS011;5411;58.386;15.560;2024-01-27T01:24:22;0.70;;;0.70;;
10719;SDS011;5411;58.386;15.560;2024-01-27T01:26:50;0.70;;;0.70;;
10719;SDS011;5411;58.386;15.560;2024-01-27T01:29:19;0.83;;;0.83;;
10719;SDS011;5411;58.386;15.560;2024-01-27T01:31:48;0.80;;;0.80;;
10719;SDS011;5411;58.386;15.560;2024-01-27T01:34:17;0.90;;;0.90;;
10719;SDS011;5411;58.386;15.560;2024-01-27T01:36:45;0.80;;;0.80;;
10719;SDS011;5411;58.386;15.560;2024-01-27T01:39:14;0.87;;;0.70;;
10719;SDS011;5411;58.386;15.560;2024-01-27T01:41:45;1.00;;;1.00;;
10719;SDS011;5411;58.386;15.560;2024-01-27T01:44:13;0.73;;;0.73;;
10719;SDS011;5411;58.386;15.560;2024-01-27T01:46:42;0.80;;;0.80;;
10719;SDS011;5411;58.386;15.560;2024-01-27T01:49:11;3.33;;;0.80;;
10719;SDS011;5411;58.386;15.560;2024-01-27T01:51:40;0.80;;;0.80;;
10719;SDS011;5411;58.386;15.560;2024-01-27T01:54:09;0.97;;;0.70;;
10719;SDS011;5411;58.386;15.560;2024-01-27T01:56:39;0.63;;;0.63;;
10719;SDS011;5411;58.386;15.560;2024-01-27T01:59:09;0.70;;;0.70;;
10719;SDS011;5411;58.386;15.560;2024-01-27T02:01:37;2.77;;;0.97;;
10719;SDS011;5411;58.386;15.560;2024-01-27T02:04:09;0.80;;;0.80;;
10719;SDS011;5411;58.386;15.560;2024-01-27T02:06:38;0.97;;;0.97;;
10719;SDS011;5411;58.386;15.560;2024-01-27T02:09:06;0.60;;;0.60;;
10719;SDS011;5411;58.386;15.560;2024-01-27T02:11:36;1.17;;;1.07;;
10719;SDS011;5411;58.386;15.560;2024-01-27T02:14:05;0.73;;;0.70;;
10719;SDS011;5411;58.386;15.560;2024-01-27T02:16:38;0.80;;;0.80;;
10719;SDS011;5411;58.386;15.560;2024-01-27T02:19:06;1.03;;;0.87;;
10719;SDS011;5411;58.386;15.560;2024-01-27T02:21:35;0.80;;;0.80;;
10719;SDS011;5411;58.386;15.560;2024-01-27T02:26:38;1.07;;;0.70;;
10719;SDS011;5411;58.386;15.560;2024-01-27T02:29:06;1.57;;;1.30;;
10719;SDS011;5411;58.386;15.560;2024-01-27T02:31:35;0.80;;;0.80;;
10719;SDS011;5411;58.386;15.560;2024-01-27T02:34:03;6.03;;;1.20;;
10719;SDS011;5411;58.386;15.560;2024-01-27T02:36:32;1.70;;;0.70;;
10719;SDS011;5411;58.386;15.560;2024-01-27T02:39:01;0.63;;;0.63;;
10719;SDS011;5411;58.386;15.560;2024-01-27T02:41:31;0.80;;;0.70;;
10719;SDS011;5411;58.386;15.560;2024-01-27T02:44:05;0.77;;;0.77;;
10719;SDS011;5411;58.386;15.560;2024-01-27T02:46:35;3.17;;;0.90;;
10719;SDS011;5411;58.386;15.560;2024-01-27T02:49:03;3.47;;;1.20;;
10719;SDS011;5411;58.386;15.560;2024-01-27T02:51:32;1.13;;;0.93;;
10719;SDS011;5411;58.386;15.560;2024-01-27T02:54:00;0.80;;;0.80;;
10719;SDS011;5411;58.386;15.560;2024-01-27T02:56:29;2.50;;;1.00;;
10719;SDS011;5411;58.386;15.560;2024-01-27T02:58:59;2.30;;;0.80;;
10719;SDS011;5411;58.386;15.560;2024-01-27T03:01:27;1.83;;;1.07;;
10719;SDS011;5411;58.386;15.560;2024-01-27T03:03:55;1.87;;;0.80;;
10719;SDS011;5411;58.386;15.560;2024-01-27T03:06:24;2.93;;;0.90;;
10719;SDS011;5411;58.386;15.560;2024-01-27T03:08:53;1.73;;;1.10;;
10719;SDS011;5411;58.386;15.560;2024-01-27T03:11:21;1.43;;;0.90;;
10719;SDS011;5411;58.386;15.560;2024-01-27T03:13:51;1.03;;;0.90;;
10719;SDS011;5411;58.386;15.560;2024-01-27T03:16:20;1.23;;;1.10;;
10719;SDS011;5411;58.386;15.560;2024-01-27T03:18:48;6.37;;;2.13;;
10719;SDS011;5411;58.386;15.560;2024-01-27T03:21:17;0.93;;;0.93;;
10719;SDS011;5411;58.386;15.560;2024-01-27T03:23:47;2.70;;;1.20;;
10719;SDS011;5411;58.386;15.560;2024-01-27T03:26:16;6.27;;;1.33;;
10719;SDS011;5411;58.386;15.560;2024-01-27T03:28:44;1.00;;;0.80;;
10719;SDS011;5411;58.386;15.560;2024-01-27T03:31:13;2.20;;;1.20;;
10719;SDS011;5411;58.386;15.560;2024-01-27T03:33:41;2.80;;;1.40;;
10719;SDS011;5411;58.386;15.560;2024-01-27T03:36:10;3.03;;;1.33;;
10719;SDS011;5411;58.386;15.560;2024-01-27T03:38:40;2.17;;;1.10;;
10719;SDS011;5411;58.386;15.560;2024-01-27T03:41:11;2.03;;;1.20;;
10719;SDS011;5411;58.386;15.560;2024-01-27T03:43:39;1.93;;;1.17;;
10719;SDS011;5411;58.386;15.560;2024-01-27T03:46:08;2.37;;;1.13;;
10719;SDS011;5411;58.386;15.560;2024-01-27T03:48:38;1.93;;;1.20;;
10719;SDS011;5411;58.386;15.560;2024-01-27T03:51:07;6.40;;;1.50;;
10719;SDS011;5411;58.386;15.560;2024-01-27T03:53:39;3.13;;;1.53;;
10719;SDS011;5411;58.386;15.560;2024-01-27T03:56:11;3.37;;;1.57;;
10719;SDS011;5411;58.386;15.560;2024-01-27T03:58:39;1.57;;;1.10;;
10719;SDS011;5411;58.386;15.560;2024-01-27T04:01:08;2.60;;;1.23;;
10719;SDS011;5411;58.386;15.560;2024-01-27T04:03:36;4.20;;;1.30;;
10719;SDS011;5411;58.386;15.560;2024-01-27T04:06:07;4.23;;;1.20;;
10719;SDS011;5411;58.386;15.560;2024-01-27T04:08:37;2.00;;;1.00;;
10719;SDS011;5411;58.386;15.560;2024-01-27T04:11:06;5.70;;;1.50;;
10719;SDS011;5411;58.386;15.560;2024-01-27T04:13:35;2.50;;;0.90;;
10719;SDS011;5411;58.386;15.560;2024-01-27T04:16:04;3.60;;;1.40;;
10719;SDS011;5411;58.386;15.560;2024-01-27T04:18:33;3.77;;;1.57;;
10719;SDS011;5411;58.386;15.560;2024-01-27T04:21:03;2.93;;;1.40;;
10719;SDS011;5411;58.386;15.560;2024-01-27T04:23:32;5.23;;;1.47;;
10719;SDS011;5411;58.386;15.560;2024-01-27T04:26:03;3.50;;;1.60;;
10719;SDS011;5411;58.386;15.560;2024-01-27T04:28:33;2.47;;;1.40;;
10719;SDS011;5411;58.386;15.560;2024-01-27T04:31:01;2.70;;;1.30;;
10719;SDS011;5411;58.386;15.560;2024-01-27T04:33:30;4.57;;;1.60;;
10719;SDS011;5411;58.386;15.560;2024-01-27T04:35:59;5.13;;;1.43;;
10719;SDS011;5411;58.386;15.560;2024-01-27T04:38:29;7.03;;;1.67;;
10719;SDS011;5411;58.386;15.560;2024-01-27T04:40:58;5.30;;;1.57;;
10719;SDS011;5411;58.386;15.560;2024-01-27T04:43:26;3.30;;;1.20;;
10719;SDS011;5411;58.386;15.560;2024-01-27T04:45:55;4.40;;;1.60;;
10719;SDS011;5411;58.386;15.560;2024-01-27T04:48:23;2.07;;;1.20;;
10719;SDS011;5411;58.386;15.560;2024-01-27T04:50:52;4.67;;;2.23;;
10719;SDS011;5411;58.386;15.560;2024-01-27T04:53:21;3.47;;;1.47;;
10719;SDS011;5411;58.386;15.560;2024-01-27T04:55:51;6.70;;;1.60;;
10719;SDS011;5411;58.386;15.560;2024-01-27T04:58:19;3.40;;;1.30;;
10719;SDS011;5411;58.386;15.560;2024-01-27T05:00:49;3.67;;;1.37;;
10719;SDS011;5411;58.386;15.560;2024-01-27T05:03:17;3.10;;;1.40;;
10719;SDS011;5411;58.386;15.560;2024-01-27T05:05:46;3.03;;;1.20;;
10719;SDS011;5411;58.386;15.560;2024-01-27T05:08:15;4.43;;;1.50;;
10719;SDS011;5411;58.386;15.560;2024-01-27T05:10:44;2.17;;;1.30;;
10719;SDS011;5411;58.386;15.560;2024-01-27T05:13:26;4.87;;;1.50;;
10719;SDS011;5411;58.386;15.560;2024-01-27T05:15:54;3.30;;;1.10;;
10719;SDS011;5411;58.386;15.560;2024-01-27T05:18:23;7.90;;;1.83;;
10719;SDS011;5411;58.386;15.560;2024-01-27T05:20:57;4.60;;;1.30;;
10719;SDS011;5411;58.386;15.560;2024-01-27T05:23:26;3.13;;;1.43;;
10719;SDS011;5411;58.386;15.560;2024-01-27T05:25:55;3.27;;;1.37;;
10719;SDS011;5411;58.386;15.560;2024-01-27T05:28:25;4.10;;;1.50;;
10719;SDS011;5411;58.386;15.560;2024-01-27T05:30:53;2.70;;;1.30;;
10719;SDS011;5411;58.386;15.560;2024-01-27T05:33:22;2.57;;;1.57;;
10719;SDS011;5411;58.386;15.560;2024-01-27T05:35:50;2.70;;;1.30;;
10719;SDS011;5411;58.386;15.560;2024-01-27T05:38:20;5.27;;;1.63;;
10719;SDS011;5411;58.386;15.560;2024-01-27T05:40:49;8.03;;;1.50;;
10719;SDS011;5411;58.386;15.560;2024-01-27T05:43:17;3.97;;;2.00;;
10719;SDS011;5411;58.386;15.560;2024-01-27T05:45:47;4.33;;;2.00;;
10719;SDS011;5411;58.386;15.560;2024-01-27T05:48:17;4.07;;;1.60;;
10719;SDS011;5411;58.386;15.560;2024-01-27T05:50:54;1.80;;;1.30;;
10719;SDS011;5411;58.386;15.560;2024-01-27T05:53:23;3.87;;;1.60;;
10719;SDS011;5411;58.386;15.560;2024-01-27T05:55:51;3.17;;;1.63;;
10719;SDS011;5411;58.386;15.560;2024-01-27T05:58:20;5.27;;;1.80;;
10719;SDS011;5411;58.386;15.560;2024-01-27T06:00:50;4.50;;;1.63;;
10719;SDS011;5411;58.386;15.560;2024-01-27T06:03:20;3.83;;;1.77;;
10719;SDS011;5411;58.386;15.560;2024-01-27T06:05:48;5.37;;;1.30;;
10719;SDS011;5411;58.386;15.560;2024-01-27T06:08:17;3.73;;;1.67;;
10719;SDS011;5411;58.386;15.560;2024-01-27T06:10:46;5.40;;;1.40;;
10719;SDS011;5411;58.386;15.560;2024-01-27T06:13:15;4.30;;;1.40;;
10719;SDS011;5411;58.386;15.560;2024-01-27T06:15:43;4.57;;;1.60;;
10719;SDS011;5411;58.386;15.560;2024-01-27T06:18:13;2.60;;;1.80;;
10719;SDS011;5411;58.386;15.560;2024-01-27T06:20:42;3.83;;;1.27;;
10719;SDS011;5411;58.386;15.560;2024-01-27T06:23:10;1.83;;;1.00;;
10719;SDS011;5411;58.386;15.560;2024-01-27T06:25:39;5.13;;;1.50;;
10719;SDS011;5411;58.386;15.560;2024-01-27T06:28:08;4.17;;;1.40;;
10719;SDS011;5411;58.386;15.560;2024-01-27T06:30:36;4.37;;;1.23;;
10719;SDS011;5411;58.386;15.560;2024-01-27T06:33:05;2.10;;;1.50;;
10719;SDS011;5411;58.386;15.560;2024-01-27T06:35:35;4.07;;;1.40;;
10719;SDS011;5411;58.386;15.560;2024-01-27T06:38:04;2.90;;;1.30;;
10719;SDS011;5411;58.386;15.560;2024-01-27T06:40:32;5.00;;;1.80;;
10719;SDS011;5411;58.386;15.560;2024-01-27T06:43:00;5.80;;;1.30;;
10719;SDS011;5411;58.386;15.560;2024-01-27T06:45:32;2.40;;;1.63;;
10719;SDS011;5411;58.386;15.560;2024-01-27T06:48:00;2.23;;;1.20;;
10719;SDS011;5411;58.386;15.560;2024-01-27T06:50:32;2.83;;;1.20;;
10719;SDS011;5411;58.386;15.560;2024-01-27T06:53:03;4.40;;;1.97;;
10719;SDS011;5411;58.386;15.560;2024-01-27T06:55:31;2.70;;;1.57;;
10719;SDS011;5411;58.386;15.560;2024-01-27T06:57:59;1.93;;;1.30;;
10719;SDS011;5411;58.386;15.560;2024-01-27T07:00:28;3.40;;;1.77;;
10719;SDS011;5411;58.386;15.560;2024-01-27T07:02:57;3.03;;;1.30;;
10719;SDS011;5411;58.386;15.560;2024-01-27T07:05:26;1.97;;;1.67;;
10719;SDS011;5411;58.386;15.560;2024-01-27T07:07:54;1.40;;;1.23;;
10719;SDS011;5411;58.386;15.560;2024-01-27T07:10:24;4.10;;;1.57;;
10719;SDS011;5411;58.386;15.560;2024-01-27T07:12:55;3.13;;;1.73;;
10719;SDS011;5411;58.386;15.560;2024-01-27T07:15:24;3.43;;;1.47;;
10719;SDS011;5411;58.386;15.560;2024-01-27T07:17:53;6.90;;;1.60;;
10719;SDS011;5411;58.386;15.560;2024-01-27T07:20:22;4.50;;;2.07;;
10719;SDS011;5411;58.386;15.560;2024-01-27T07:22:51;2.30;;;1.30;;
10719;SDS011;5411;58.386;15.560;2024-01-27T07:25:19;3.97;;;2.00;;
10719;SDS011;5411;58.386;15.560;2024-01-27T07:27:49;2.70;;;1.70;;
10719;SDS011;5411;58.386;15.560;2024-01-27T07:30:18;3.97;;;1.70;;
10719;SDS011;5411;58.386;15.560;2024-01-27T07:32:46;2.80;;;1.50;;
10719;SDS011;5411;58.386;15.560;2024-01-27T07:35:15;2.50;;;1.80;;
10719;SDS011;5411;58.386;15.560;2024-01-27T07:37:44;1.40;;;1.27;;
10719;SDS011;5411;58.386;15.560;2024-01-27T07:40:13;1.80;;;1.20;;
10719;SDS011;5411;58.386;15.560;2024-01-27T07:42:42;1.50;;;1.20;;
10719;SDS011;5411;58.386;15.560;2024-01-27T07:45:11;2.83;;;1.57;;
10719;SDS011;5411;58.386;15.560;2024-01-27T07:47:42;4.40;;;1.60;;
10719;SDS011;5411;58.386;15.560;2024-01-27T07:50:10;2.23;;;1.67;;
10719;SDS011;5411;58.386;15.560;2024-01-27T07:52:39;3.07;;;1.43;;
10719;SDS011;5411;58.386;15.560;2024-01-27T07:55:08;1.83;;;1.20;;
10719;SDS011;5411;58.386;15.560;2024-01-27T07:57:37;2.83;;;1.53;;
10719;SDS011;5411;58.386;15.560;2024-01-27T08:00:06;2.23;;;1.23;;
10719;SDS011;5411;58.386;15.560;2024-01-27T08:02:37;3.27;;;1.20;;
10719;SDS011;5411;58.386;15.560;2024-01-27T08:05:05;1.77;;;1.30;;
10719;SDS011;5411;58.386;15.560;2024-01-27T08:07:37;1.57;;;1.03;;
10719;SDS011;5411;58.386;15.560;2024-01-27T08:10:06;2.73;;;1.20;;
10719;SDS011;5411;58.386;15.560;2024-01-27T08:12:37;2.20;;;1.30;;
10719;SDS011;5411;58.386;15.560;2024-01-27T08:15:06;1.83;;;1.07;;
10719;SDS011;5411;58.386;15.560;2024-01-27T08:17:39;2.40;;;1.30;;
10719;SDS011;5411;58.386;15.560;2024-01-27T08:20:10;1.83;;;0.90;;
10719;SDS011;5411;58.386;15.560;2024-01-27T08:22:39;1.50;;;1.10;;
10719;SDS011;5411;58.386;15.560;2024-01-27T08:25:08;1.30;;;1.20;;
10719;SDS011;5411;58.386;15.560;2024-01-27T08:27:38;1.30;;;1.20;;
10719;SDS011;5411;58.386;15.560;2024-01-27T08:30:09;1.47;;;1.30;;
10719;SDS011;5411;58.386;15.560;2024-01-27T08:32:40;1.63;;;1.10;;
10719;SDS011;5411;58.386;15.560;2024-01-27T08:35:09;1.50;;;1.40;;
10719;SDS011;5411;58.386;15.560;2024-01-27T08:37:37;1.53;;;1.43;;
10719;SDS011;5411;58.386;15.560;2024-01-27T08:40:06;1.20;;;1.10;;
10719;SDS011;5411;58.386;15.560;2024-01-27T08:42:35;1.20;;;1.10;;
10719;SDS011;5411;58.386;15.560;2024-01-27T08:45:04;1.60;;;1.17;;
10719;SDS011;5411;58.386;15.560;2024-01-27T08:47:34;2.90;;;1.70;;
10719;SDS011;5411;58.386;15.560;2024-01-27T08:50:10;1.83;;;1.40;;
10719;SDS011;5411;58.386;15.560;2024-01-27T08:52:38;2.43;;;1.40;;
10719;SDS011;5411;58.386;15.560;2024-01-27T08:55:07;2.93;;;1.47;;
10719;SDS011;5411;58.386;15.560;2024-01-27T08:57:35;3.03;;;1.30;;
10719;SDS011;5411;58.386;15.560;2024-01-27T09:00:04;2.63;;;1.30;;
10719;SDS011;5411;58.386;15.560;2024-01-27T09:02:34;4.43;;;1.50;;
10719;SDS011;5411;58.386;15.560;2024-01-27T09:05:02;2.97;;;1.63;;
10719;SDS011;5411;58.386;15.560;2024-01-27T09:07:33;2.03;;;1.30;;
10719;SDS011;5411;58.386;15.560;2024-01-27T09:10:04;4.23;;;1.80;;
10719;SDS011;5411;58.386;15.560;2024-01-27T09:12:34;3.47;;;1.30;;
10719;SDS011;5411;58.386;15.560;2024-01-27T09:15:03;2.87;;;1.30;;
10719;SDS011;5411;58.386;15.560;2024-01-27T09:17:34;3.13;;;1.50;;
10719;SDS011;5411;58.386;15.560;2024-01-27T09:20:02;1.33;;;1.10;;
10719;SDS011;5411;58.386;15.560;2024-01-27T09:22:34;2.60;;;1.40;;
10719;SDS011;5411;58.386;15.560;2024-01-27T09:25:03;2.43;;;1.20;;
10719;SDS011;5411;58.386;15.560;2024-01-27T09:27:31;2.37;;;1.37;;
10719;SDS011;5411;58.386;15.560;2024-01-27T09:30:01;3.07;;;1.60;;
10719;SDS011;5411;58.386;15.560;2024-01-27T09:32:30;4.23;;;1.80;;
10719;SDS011;5411;58.386;15.560;2024-01-27T09:34:58;3.47;;;1.37;;
10719;SDS011;5411;58.386;15.560;2024-01-27T09:37:27;5.93;;;1.70;;
10719;SDS011;5411;58.386;15.560;2024-01-27T09:39:57;2.13;;;1.40;;
10719;SDS011;5411;58.386;15.560;2024-01-27T09:42:27;2.43;;;1.47;;
10719;SDS011;5411;58.386;15.560;2024-01-27T09:44:56;4.80;;;1.37;;
10719;SDS011;5411;58.386;15.560;2024-01-27T09:47:27;2.50;;;1.20;;
10719;SDS011;5411;58.386;15.560;2024-01-27T09:49:56;2.13;;;1.10;;
10719;SDS011;5411;58.386;15.560;2024-01-27T09:52:25;1.83;;;1.30;;
10719;SDS011;5411;58.386;15.560;2024-01-27T09:54:53;3.83;;;1.50;;
10719;SDS011;5411;58.386;15.560;2024-01-27T09:57:24;2.83;;;1.50;;
10719;SDS011;5411;58.386;15.560;2024-01-27T09:59:54;2.90;;;1.30;;
10719;SDS011;5411;58.386;15.560;2024-01-27T10:02:25;3.50;;;1.40;;
10719;SDS011;5411;58.386;15.560;2024-01-27T10:04:57;4.40;;;1.77;;
10719;SDS011;5411;58.386;15.560;2024-01-27T10:07:26;5.87;;;1.70;;
10719;SDS011;5411;58.386;15.560;2024-01-27T10:09:55;4.40;;;1.93;;
10719;SDS011;5411;58.386;15.560;2024-01-27T10:12:25;8.40;;;2.17;;
10719;SDS011;5411;58.386;15.560;2024-01-27T10:14:56;2.87;;;1.53;;
10719;SDS011;5411;58.386;15.560;2024-01-27T10:17:25;4.00;;;1.63;;
10719;SDS011;5411;58.386;15.560;2024-01-27T10:19:59;3.17;;;1.80;;
10719;SDS011;5411;58.386;15.560;2024-01-27T10:22:36;2.53;;;1.63;;
10719;SDS011;5411;58.386;15.560;2024-01-27T10:25:06;6.83;;;1.70;;
10719;SDS011;5411;58.386;15.560;2024-01-27T10:27:38;6.17;;;1.70;;
10719;SDS011;5411;58.386;15.560;2024-01-27T10:30:08;1.47;;;1.37;;
10719;SDS011;5411;58.386;15.560;2024-01-27T10:32:54;5.93;;;1.53;;
10719;SDS011;5411;58.386;15.560;2024-01-27T10:35:24;4.57;;;1.53;;
10719;SDS011;5411;58.386;15.560;2024-01-27T10:37:53;5.87;;;1.60;;
10719;SDS011;5411;58.386;15.560;2024-01-27T10:40:25;2.43;;;1.60;;
10719;SDS011;5411;58.386;15.560;2024-01-27T10:42:59;4.53;;;1.57;;
10719;SDS011;5411;58.386;15.560;2024-01-27T10:45:33;6.50;;;2.10;;
10719;SDS011;5411;58.386;15.560;2024-01-27T10:48:05;2.90;;;1.87;;
10719;SDS011;5411;58.386;15.560;2024-01-27T10:50:37;4.13;;;1.60;;
10719;SDS011;5411;58.386;15.560;2024-01-27T10:53:15;3.17;;;1.30;;
10719;SDS011;5411;58.386;15.560;2024-01-27T10:55:50;2.97;;;1.30;;
10719;SDS011;5411;58.386;15.560;2024-01-27T10:58:27;4.40;;;1.50;;
10719;SDS011;5411;58.386;15.560;2024-01-27T11:01:07;3.13;;;1.80;;
10719;SDS011;5411;58.386;15.560;2024-01-27T11:03:38;5.80;;;1.90;;
10719;SDS011;5411;58.386;15.560;2024-01-27T11:06:08;4.97;;;1.80;;
10719;SDS011;5411;58.386;15.560;2024-01-27T11:08:39;3.87;;;1.67;;
10719;SDS011;5411;58.386;15.560;2024-01-27T11:11:10;4.23;;;1.60;;
10719;SDS011;5411;58.386;15.560;2024-01-27T11:13:40;2.40;;;1.60;;
10719;SDS011;5411;58.386;15.560;2024-01-27T11:16:15;6.17;;;1.93;;
10719;SDS011;5411;58.386;15.560;2024-01-27T11:18:45;4.87;;;1.73;;
10719;SDS011;5411;58.386;15.560;2024-01-27T11:21:16;4.83;;;1.60;;
10719;SDS011;5411;58.386;15.560;2024-01-27T11:23:45;5.30;;;2.13;;
10719;SDS011;5411;58.386;15.560;2024-01-27T11:26:17;4.50;;;1.87;;
10719;SDS011;5411;58.386;15.560;2024-01-27T11:28:49;4.03;;;1.73;;
10719;SDS011;5411;58.386;15.560;2024-01-27T11:31:18;3.63;;;1.80;;
10719;SDS011;5411;58.386;15.560;2024-01-27T11:33:49;6.10;;;2.13;;
10719;SDS011;5411;58.386;15.560;2024-01-27T11:36:21;5.73;;;1.80;;
10719;SDS011;5411;58.386;15.560;2024-01-27T11:38:52;10.60;;;2.00;;
10719;SDS011;5411;58.386;15.560;2024-01-27T11:41:26;4.77;;;1.93;;
10719;SDS011;5411;58.386;15.560;2024-01-27T11:43:57;4.23;;;1.63;;
10719;SDS011;5411;58.386;15.560;2024-01-27T11:46:28;6.83;;;2.40;;
10719;SDS011;5411;58.386;15.560;2024-01-27T11:48:57;6.23;;;2.00;;
10719;SDS011;5411;58.386;15.560;2024-01-27T11:51:25;4.50;;;1.87;;
10719;SDS011;5411;58.386;15.560;2024-01-27T11:53:55;4.83;;;2.10;;
10719;SDS011;5411;58.386;15.560;2024-01-27T11:56:23;4.47;;;1.90;;
10719;SDS011;5411;58.386;15.560;2024-01-27T11:58:52;7.57;;;2.20;;
10719;SDS011;5411;58.386;15.560;2024-01-27T12:01:22;3.77;;;2.03;;
10719;SDS011;5411;58.386;15.560;2024-01-27T12:03:50;5.00;;;1.83;;
10719;SDS011;5411;58.386;15.560;2024-01-27T12:06:19;7.17;;;2.00;;
10719;SDS011;5411;58.386;15.560;2024-01-27T12:08:48;6.83;;;2.10;;
10719;SDS011;5411;58.386;15.560;2024-01-27T12:11:17;8.30;;;2.10;;
10719;SDS011;5411;58.386;15.560;2024-01-27T12:13:50;9.27;;;2.53;;
10719;SDS011;5411;58.386;15.560;2024-01-27T12:16:20;4.27;;;2.03;;
10719;SDS011;5411;58.386;15.560;2024-01-27T12:18:53;6.43;;;2.23;;
10719;SDS011;5411;58.386;15.560;2024-01-27T12:21:22;6.07;;;2.23;;
10719;SDS011;5411;58.386;15.560;2024-01-27T12:23:52;7.40;;;2.10;;
10719;SDS011;5411;58.386;15.560;2024-01-27T12:26:21;8.87;;;2.50;;
10719;SDS011;5411;58.386;15.560;2024-01-27T12:28:50;6.90;;;2.03;;
10719;SDS011;5411;58.386;15.560;2024-01-27T12:31:19;9.63;;;2.00;;
10719;SDS011;5411;58.386;15.560;2024-01-27T12:33:52;6.40;;;2.03;;
10719;SDS011;5411;58.386;15.560;2024-01-27T12:36:26;10.40;;;2.93;;
10719;SDS011;5411;58.386;15.560;2024-01-27T12:38:56;6.70;;;2.13;;
10719;SDS011;5411;58.386;15.560;2024-01-27T12:41:25;7.37;;;2.20;;
10719;SDS011;5411;58.386;15.560;2024-01-27T12:43:55;8.30;;;2.53;;
10719;SDS011;5411;58.386;15.560;2024-01-27T12:46:25;4.67;;;1.67;;
10719;SDS011;5411;58.386;15.560;2024-01-27T12:48:55;6.37;;;2.00;;
10719;SDS011;5411;58.386;15.560;2024-01-27T12:51:24;6.20;;;2.10;;
10719;SDS011;5411;58.386;15.560;2024-01-27T12:53:52;5.00;;;1.70;;
10719;SDS011;5411;58.386;15.560;2024-01-27T12:56:21;6.93;;;1.93;;
10719;SDS011;5411;58.386;15.560;2024-01-27T12:58:49;12.27;;;2.33;;
10719;SDS011;5411;58.386;15.560;2024-01-27T13:01:18;5.83;;;1.90;;
10719;SDS011;5411;58.386;15.560;2024-01-27T13:03:47;6.70;;;2.00;;
10719;SDS011;5411;58.386;15.560;2024-01-27T13:06:18;8.53;;;2.17;;
10719;SDS011;5411;58.386;15.560;2024-01-27T13:08:49;10.40;;;2.40;;
10719;SDS011;5411;58.386;15.560;2024-01-27T13:11:19;6.20;;;2.27;;
10719;SDS011;5411;58.386;15.560;2024-01-27T13:13:48;9.33;;;2.83;;
10719;SDS011;5411;58.386;15.560;2024-01-27T13:16:16;6.47;;;1.97;;
10719;SDS011;5411;58.386;15.560;2024-01-27T13:18:45;12.20;;;2.97;;
10719;SDS011;5411;58.386;15.560;2024-01-27T13:21:13;7.80;;;2.40;;
10719;SDS011;5411;58.386;15.560;2024-01-27T13:23:43;4.50;;;2.27;;
10719;SDS011;5411;58.386;15.560;2024-01-27T13:26:11;5.67;;;2.40;;
10719;SDS011;5411;58.386;15.560;2024-01-27T13:28:45;7.57;;;2.67;;
10719;SDS011;5411;58.386;15.560;2024-01-27T13:31:16;18.53;;;3.13;;
10719;SDS011;5411;58.386;15.560;2024-01-27T13:33:45;10.90;;;3.00;;
10719;SDS011;5411;58.386;15.560;2024-01-27T13:36:14;9.97;;;3.00;;
10719;SDS011;5411;58.386;15.560;2024-01-27T13:38:46;8.57;;;2.07;;
10719;SDS011;5411;58.386;15.560;2024-01-27T13:41:15;7.70;;;2.37;;
10719;SDS011;5411;58.386;15.560;2024-01-27T13:43:43;8.77;;;2.20;;
10719;SDS011;5411;58.386;15.560;2024-01-27T13:46:12;7.37;;;2.20;;
10719;SDS011;5411;58.386;15.560;2024-01-27T13:48:41;8.63;;;2.67;;
10719;SDS011;5411;58.386;15.560;2024-01-27T13:51:10;5.97;;;1.97;;
10719;SDS011;5411;58.386;15.560;2024-01-27T13:53:39;9.93;;;2.90;;
10719;SDS011;5411;58.386;15.560;2024-01-27T13:56:14;11.70;;;2.60;;
10719;SDS011;5411;58.386;15.560;2024-01-27T13:58:43;6.03;;;2.70;;
10719;SDS011;5411;58.386;15.560;2024-01-27T14:01:13;12.37;;;2.50;;
10719;SDS011;5411;58.386;15.560;2024-01-27T14:03:41;11.33;;;3.47;;
10719;SDS011;5411;58.386;15.560;2024-01-27T14:06:10;12.07;;;3.07;;
10719;SDS011;5411;58.386;15.560;2024-01-27T14:08:40;6.83;;;2.50;;
10719;SDS011;5411;58.386;15.560;2024-01-27T14:11:09;14.30;;;3.33;;
10719;SDS011;5411;58.386;15.560;2024-01-27T14:13:38;11.43;;;2.93;;
10719;SDS011;5411;58.386;15.560;2024-01-27T14:16:09;12.20;;;2.73;;
10719;SDS011;5411;58.386;15.560;2024-01-27T14:18:38;7.47;;;2.70;;
10719;SDS011;5411;58.386;15.560;2024-01-27T14:21:06;8.30;;;2.63;;
10719;SDS011;5411;58.386;15.560;2024-01-27T14:23:35;9.53;;;3.00;;
10719;SDS011;5411;58.386;15.560;2024-01-27T14:26:04;10.70;;;3.33;;
10719;SDS011;5411;58.386;15.560;2024-01-27T14:28:34;14.33;;;4.47;;
10719;SDS011;5411;58.386;15.560;2024-01-27T14:31:04;13.07;;;2.77;;
10719;SDS011;5411;58.386;15.560;2024-01-27T14:33:32;9.83;;;3.73;;
10719;SDS011;5411;58.386;15.560;2024-01-27T14:36:02;12.33;;;2.77;;
10719;SDS011;5411;58.386;15.560;2024-01-27T14:38:30;9.60;;;3.93;;
10719;SDS011;5411;58.386;15.560;2024-01-27T14:41:00;12.90;;;4.07;;
10719;SDS011;5411;58.386;15.560;2024-01-27T14:43:29;9.90;;;3.20;;
10719;SDS011;5411;58.386;15.560;2024-01-27T14:46:04;11.10;;;3.03;;
10719;SDS011;5411;58.386;15.560;2024-01-27T14:48:33;6.60;;;2.70;;
10719;SDS011;5411;58.386;15.560;2024-01-27T14:51:02;16.33;;;3.43;;
10719;SDS011;5411;58.386;15.560;2024-01-27T14:53:31;12.37;;;2.80;;
10719;SDS011;5411;58.386;15.560;2024-01-27T14:56:00;12.30;;;3.40;;
10719;SDS011;5411;58.386;15.560;2024-01-27T14:58:28;12.43;;;3.13;;
10719;SDS011;5411;58.386;15.560;2024-01-27T15:00:57;18.03;;;3.40;;
10719;SDS011;5411;58.386;15.560;2024-01-27T15:03:27;12.53;;;3.23;;